createdAt,value
2022-11-25T00:00:33.605Z,9.88
2022-11-25T00:03:00.155Z,9.40
2022-11-25T00:05:28.384Z,10.00
2022-11-25T00:07:54.913Z,12.38
2022-11-25T00:10:21.471Z,8.85
2022-11-25T00:12:47.902Z,9.38
2022-11-25T00:15:14.455Z,10.63
2022-11-25T00:17:40.887Z,8.18
2022-11-25T00:20:07.991Z,10.55
2022-11-25T00:22:34.448Z,11.07
2022-11-25T00:25:00.900Z,12.90
2022-11-25T00:27:27.391Z,11.48
2022-11-25T00:29:53.843Z,12.50
2022-11-25T00:32:20.312Z,8.23
2022-11-25T00:34:47.537Z,8.43
2022-11-25T00:37:15.189Z,8.60
2022-11-25T00:39:41.861Z,10.90
2022-11-25T00:42:28.975Z,8.35
2022-11-25T00:44:55.396Z,5.93
2022-11-25T00:47:22.124Z,8.93
2022-11-25T00:49:50.952Z,8.50
2022-11-25T00:52:20.943Z,6.70
2022-11-25T00:54:48.544Z,9.70
2022-11-25T00:57:16.585Z,5.82
2022-11-25T00:59:43.120Z,6.13
2022-11-25T01:02:11.747Z,6.72
2022-11-25T01:04:39.206Z,6.60
2022-11-25T01:07:06.535Z,6.75
2022-11-25T01:09:34.624Z,5.95
2022-11-25T01:12:03.439Z,6.07
2022-11-25T01:14:30.582Z,6.35
2022-11-25T01:16:57.072Z,8.30
2022-11-25T01:19:23.550Z,5.82
2022-11-25T01:21:50.131Z,5.10
2022-11-25T01:24:17.472Z,5.72
2022-11-25T01:26:44.671Z,5.90
2022-11-25T01:29:18.879Z,7.63
2022-11-25T01:31:46.036Z,11.75
2022-11-25T01:34:15.798Z,7.10
2022-11-25T01:36:43.129Z,5.78
2022-11-25T01:39:15.844Z,9.25
2022-11-25T01:41:42.339Z,11.35
2022-11-25T01:44:23.725Z,4.85
2022-11-25T01:47:05.352Z,8.45
2022-11-25T01:49:37.968Z,9.23
2022-11-25T01:52:20.590Z,10.15
2022-11-25T01:55:02.014Z,11.60
2022-11-25T01:57:34.598Z,5.82
2022-11-25T02:00:04.258Z,7.45
2022-11-25T02:02:44.132Z,10.90
2022-11-25T02:05:15.772Z,6.57
2022-11-25T02:07:45.188Z,4.97
2022-11-25T02:10:15.633Z,12.55
2022-11-25T02:12:45.855Z,7.85
2022-11-25T02:15:13.772Z,8.18
2022-11-25T02:17:40.999Z,14.13
2022-11-25T02:20:09.089Z,6.45
2022-11-25T02:22:58.027Z,9.25
2022-11-25T02:25:38.065Z,7.55
2022-11-25T02:28:22.046Z,6.90
2022-11-25T02:30:49.353Z,9.93
2022-11-25T02:33:16.711Z,6.28
2022-11-25T02:35:55.904Z,5.13
2022-11-25T02:38:28.706Z,7.15
2022-11-25T02:41:17.107Z,5.25
2022-11-25T02:43:46.538Z,6.40
2022-11-25T02:46:21.606Z,7.60
2022-11-25T02:51:36.884Z,9.00
2022-11-25T02:54:03.751Z,8.82
2022-11-25T02:56:32.894Z,8.48
2022-11-25T02:58:59.805Z,6.82
2022-11-25T03:01:29.769Z,9.30
2022-11-25T03:03:57.068Z,9.63
2022-11-25T03:06:23.882Z,9.32
2022-11-25T03:08:50.568Z,7.20
2022-11-25T03:11:17.467Z,8.73
2022-11-25T03:13:44.069Z,8.20
2022-11-25T03:16:10.662Z,3.72
2022-11-25T03:18:37.370Z,9.57
2022-11-25T03:21:03.918Z,9.13
2022-11-25T03:23:30.415Z,7.00
2022-11-25T03:25:57.103Z,7.15
2022-11-25T03:28:23.702Z,7.15
2022-11-25T03:30:50.228Z,10.30
2022-11-25T03:33:16.737Z,5.18
2022-11-25T03:35:44.461Z,6.97
2022-11-25T03:38:10.921Z,8.27
2022-11-25T03:40:37.459Z,7.70
2022-11-25T03:43:04.854Z,5.47
2022-11-25T03:45:31.364Z,10.60
2022-11-25T03:48:00.474Z,9.80
2022-11-25T03:50:27.352Z,7.35
2022-11-25T03:52:54.312Z,10.25
2022-11-25T03:55:20.908Z,8.45
2022-11-25T03:57:49.405Z,5.88
2022-11-25T04:00:16.458Z,7.05
2022-11-25T04:02:59.722Z,8.77
2022-11-25T04:05:26.216Z,9.25
2022-11-25T04:07:57.917Z,10.48
2022-11-25T04:10:25.290Z,11.25
2022-11-25T04:12:53.785Z,11.40
2022-11-25T04:15:28.698Z,9.07
2022-11-25T04:17:57.453Z,9.77
2022-11-25T04:20:24.579Z,11.02
2022-11-25T04:22:57.656Z,7.75
2022-11-25T04:25:24.076Z,9.00
2022-11-25T04:27:51.659Z,11.48
2022-11-25T04:30:25.111Z,8.35
2022-11-25T04:32:52.919Z,9.38
2022-11-25T04:35:19.433Z,9.32
2022-11-25T04:37:50.202Z,8.90
2022-11-25T04:40:16.827Z,9.82
2022-11-25T04:42:48.628Z,9.00
2022-11-25T04:45:23.421Z,8.13
2022-11-25T04:47:52.335Z,11.50
2022-11-25T04:50:21.769Z,10.80
2022-11-25T04:53:08.898Z,10.38
2022-11-25T04:55:35.515Z,5.13
2022-11-25T04:58:06.075Z,7.45
2022-11-25T05:00:34.298Z,4.47
2022-11-25T05:03:01.550Z,6.00
2022-11-25T05:05:30.105Z,9.93
2022-11-25T05:07:57.073Z,6.35
2022-11-25T05:10:23.623Z,11.23
2022-11-25T05:12:50.784Z,4.68
2022-11-25T05:15:20.631Z,3.42
2022-11-25T05:17:47.750Z,3.30
2022-11-25T05:20:18.625Z,4.18
2022-11-25T05:22:45.628Z,3.17
2022-11-25T05:25:17.235Z,4.47
2022-11-25T05:27:58.386Z,4.47
2022-11-25T05:30:24.975Z,6.13
2022-11-25T05:32:51.791Z,5.88
2022-11-25T05:35:18.870Z,3.72
2022-11-25T05:37:45.896Z,4.93
2022-11-25T05:40:12.957Z,4.63
2022-11-25T05:42:54.857Z,8.00
2022-11-25T05:45:21.795Z,6.72
2022-11-25T05:47:49.067Z,4.88
2022-11-25T05:50:19.812Z,4.20
2022-11-25T05:53:02.907Z,7.20
2022-11-25T05:55:29.787Z,2.88
2022-11-25T05:57:58.775Z,5.07
2022-11-25T06:00:26.867Z,4.90
2022-11-25T06:02:54.362Z,3.10
2022-11-25T06:05:22.222Z,6.03
2022-11-25T06:07:50.035Z,8.25
2022-11-25T06:10:20.023Z,10.07
2022-11-25T06:12:47.582Z,14.88
2022-11-25T06:15:14.461Z,8.70
2022-11-25T06:17:41.293Z,12.10
2022-11-25T06:20:12.899Z,3.55
2022-11-25T06:22:39.382Z,9.52
2022-11-25T06:25:06.713Z,6.53
2022-11-25T06:28:04.450Z,12.20
2022-11-25T06:30:22.618Z,6.28
2022-11-25T06:33:02.606Z,9.00
2022-11-25T06:35:29.078Z,13.70
2022-11-25T06:37:58.913Z,11.73
2022-11-25T06:40:25.766Z,12.02
2022-11-25T06:42:52.325Z,11.70
2022-11-25T06:45:18.815Z,10.63
2022-11-25T06:47:45.399Z,11.80
2022-11-25T06:50:12.197Z,11.27
2022-11-25T06:52:38.653Z,8.30
2022-11-25T06:55:05.449Z,16.73
2022-11-25T06:57:31.940Z,12.90
2022-11-25T06:59:58.403Z,8.25
2022-11-25T07:02:24.886Z,8.43
2022-11-25T07:04:51.363Z,12.45
2022-11-25T07:07:17.868Z,18.50
2022-11-25T07:09:44.364Z,12.40
2022-11-25T07:12:12.332Z,18.83
2022-11-25T07:14:39.221Z,9.75
2022-11-25T07:17:11.558Z,16.00
2022-11-25T07:19:38.794Z,18.75
2022-11-25T07:22:05.226Z,18.52
2022-11-25T07:24:31.725Z,79.75
2022-11-25T07:26:58.286Z,17.23
2022-11-25T07:32:11.410Z,20.55
2022-11-25T07:34:38.213Z,17.92
2022-11-25T07:37:04.649Z,16.75
2022-11-25T07:39:31.255Z,16.55
2022-11-25T07:41:57.728Z,18.45
2022-11-25T07:44:24.265Z,21.17
2022-11-25T07:46:58.154Z,19.08
2022-11-25T07:49:25.396Z,11.07
2022-11-25T07:51:57.630Z,16.73
2022-11-25T07:54:24.499Z,17.23
2022-11-25T07:56:51.223Z,18.92
2022-11-25T07:59:20.704Z,10.43
2022-11-25T08:02:15.842Z,15.68
2022-11-25T08:04:48.113Z,14.27
2022-11-25T08:07:31.904Z,14.00
2022-11-25T08:11:14.400Z,12.07
2022-11-25T08:14:45.344Z,13.10
2022-11-25T08:17:34.750Z,21.00
2022-11-25T08:20:01.298Z,16.67
2022-11-25T08:22:28.112Z,18.08
2022-11-25T08:25:14.246Z,16.52
2022-11-25T08:27:42.699Z,17.00
2022-11-25T08:30:09.958Z,13.55
2022-11-25T08:32:39.552Z,11.52
2022-11-25T08:35:06.596Z,13.95
2022-11-25T08:37:33.604Z,16.33
2022-11-25T08:40:00.558Z,15.43
2022-11-25T08:42:27.464Z,16.35
2022-11-25T08:44:55.947Z,15.85
2022-11-25T08:47:23.205Z,15.27
2022-11-25T08:49:54.115Z,11.10
2022-11-25T08:52:21.957Z,14.93
2022-11-25T08:54:48.978Z,17.65
2022-11-25T08:57:15.969Z,16.17
2022-11-25T08:59:42.564Z,17.48
2022-11-25T09:02:12.347Z,17.55
2022-11-25T09:04:38.867Z,10.35
2022-11-25T09:07:05.393Z,10.43
2022-11-25T09:09:31.948Z,15.43
2022-11-25T09:11:58.377Z,15.88
2022-11-25T09:14:24.887Z,16.08
2022-11-25T09:16:51.385Z,15.40
2022-11-25T09:19:17.841Z,16.38
2022-11-25T09:21:44.264Z,10.38
2022-11-25T09:24:10.742Z,15.25
2022-11-25T09:26:39.621Z,15.35
2022-11-25T09:29:06.103Z,14.32
2022-11-25T09:31:32.633Z,15.27
2022-11-25T09:33:59.289Z,17.38
2022-11-25T09:36:25.786Z,11.65
2022-11-25T09:38:52.910Z,13.32
2022-11-25T09:42:03.179Z,15.15
2022-11-25T09:45:09.622Z,14.13
2022-11-25T09:48:09.239Z,12.90
2022-11-25T09:51:01.172Z,13.02
2022-11-25T09:53:42.724Z,20.02
2022-11-25T09:56:28.402Z,14.13
2022-11-25T09:59:10.097Z,13.45
2022-11-25T10:01:48.021Z,12.90
2022-11-25T10:04:23.168Z,13.10
2022-11-25T10:06:55.663Z,16.50
2022-11-25T10:09:29.040Z,14.55
2022-11-25T10:12:05.658Z,13.15
2022-11-25T10:14:51.246Z,13.18
2022-11-25T10:17:38.278Z,16.98
2022-11-25T10:20:31.220Z,15.82
2022-11-25T10:23:03.389Z,14.38
2022-11-25T10:25:34.483Z,14.32
2022-11-25T10:28:10.348Z,12.07
2022-11-25T10:30:51.432Z,14.38
2022-11-25T10:33:22.496Z,14.38
2022-11-25T10:35:53.822Z,15.73
2022-11-25T10:38:31.291Z,17.55
2022-11-25T10:40:58.661Z,16.15
2022-11-25T10:43:31.392Z,15.13
2022-11-25T10:46:04.403Z,14.63
2022-11-25T10:48:33.522Z,17.38
2022-11-25T10:51:07.462Z,18.77
2022-11-25T10:53:34.010Z,15.48
2022-11-25T10:56:04.451Z,16.35
2022-11-25T10:58:32.564Z,14.85
2022-11-25T11:01:23.191Z,17.70
2022-11-25T11:04:02.494Z,15.45
2022-11-25T11:06:41.388Z,18.90
2022-11-25T11:09:32.567Z,19.13
2022-11-25T11:12:13.354Z,17.05
2022-11-25T11:14:40.281Z,13.35
2022-11-25T11:17:21.067Z,19.30
2022-11-25T11:20:01.302Z,17.48
2022-11-25T11:22:27.817Z,17.67
2022-11-25T11:25:17.959Z,17.50
2022-11-25T11:27:44.405Z,14.38
2022-11-25T11:30:15.669Z,21.05
2022-11-25T11:32:45.559Z,14.38
2022-11-25T11:35:26.578Z,14.18
2022-11-25T11:37:56.933Z,14.52
2022-11-25T11:40:24.048Z,17.15
2022-11-25T11:43:02.699Z,14.35
2022-11-25T11:45:37.773Z,14.90
2022-11-25T11:48:26.212Z,18.60
2022-11-25T11:51:18.323Z,16.30
2022-11-25T11:53:57.582Z,16.00
2022-11-25T11:56:35.760Z,17.10
2022-11-25T11:59:20.815Z,16.20
2022-11-25T12:02:19.962Z,13.75
2022-11-25T12:04:57.852Z,14.18
2022-11-25T12:07:38.061Z,18.08
2022-11-25T12:10:32.913Z,15.68
2022-11-25T12:13:24.265Z,15.15
2022-11-25T12:15:56.972Z,19.02
2022-11-25T12:18:26.404Z,16.55
2022-11-25T12:21:28.409Z,13.02
2022-11-25T12:23:58.905Z,14.80
2022-11-25T12:26:43.291Z,15.75
2022-11-25T12:29:22.698Z,16.83
2022-11-25T12:31:56.309Z,12.40
2022-11-25T12:34:36.608Z,13.25
2022-11-25T12:37:16.174Z,15.30
2022-11-25T12:40:14.622Z,14.35
2022-11-25T12:42:43.077Z,15.68
2022-11-25T12:45:20.624Z,11.95
2022-11-25T12:47:47.230Z,14.13
2022-11-25T12:50:29.812Z,13.27
2022-11-25T12:53:16.682Z,14.02
2022-11-25T12:55:43.191Z,9.90
2022-11-25T12:58:40.816Z,12.88
2022-11-25T13:01:24.682Z,12.35
2022-11-25T13:04:20.510Z,17.15
2022-11-25T13:07:16.871Z,11.80
2022-11-25T13:09:51.786Z,8.70
2022-11-25T13:12:46.070Z,12.23
2022-11-25T13:15:38.971Z,9.70
2022-11-25T13:18:13.185Z,13.55
2022-11-25T13:20:47.697Z,14.80
2022-11-25T13:23:27.497Z,12.27
2022-11-25T13:26:28.865Z,7.82
2022-11-25T13:28:56.898Z,13.55
2022-11-25T13:31:35.386Z,12.38
2022-11-25T13:34:24.999Z,14.27
2022-11-25T13:36:53.845Z,12.05
2022-11-25T13:39:32.180Z,10.45
2022-11-25T13:42:12.425Z,10.80
2022-11-25T13:44:58.255Z,12.23
2022-11-25T13:47:30.391Z,10.93
2022-11-25T13:50:11.921Z,13.18
2022-11-25T13:52:49.434Z,11.43
2022-11-25T13:55:18.821Z,10.43
2022-11-25T13:57:48.383Z,10.70
2022-11-25T14:00:14.765Z,16.98
2022-11-25T14:02:45.227Z,11.50
2022-11-25T14:05:50.657Z,13.65
2022-11-25T14:08:24.977Z,13.27
2022-11-25T14:11:00.198Z,11.23
2022-11-25T14:13:51.992Z,14.95
2022-11-25T14:16:49.023Z,16.80
2022-11-25T14:19:53.192Z,17.33
2022-11-25T14:22:48.644Z,14.07
2022-11-25T14:25:26.539Z,20.85
2022-11-25T14:28:07.538Z,13.57
2022-11-25T14:30:43.087Z,15.50
2022-11-25T14:33:15.400Z,12.00
2022-11-25T14:35:48.096Z,13.50
2022-11-25T14:38:29.542Z,16.75
2022-11-25T14:41:04.681Z,10.32
2022-11-25T14:43:39.866Z,14.48
2022-11-25T14:46:12.232Z,11.70
2022-11-25T14:48:38.982Z,16.90
2022-11-25T14:51:07.398Z,14.25
2022-11-25T14:53:45.995Z,12.90
2022-11-25T14:56:16.518Z,14.02
2022-11-25T14:58:51.742Z,13.02
2022-11-25T15:01:22.377Z,17.33
2022-11-25T15:03:50.431Z,15.13
2022-11-25T15:06:20.045Z,19.65
2022-11-25T15:08:55.387Z,19.55
2022-11-25T15:11:25.748Z,14.68
2022-11-25T15:14:02.132Z,16.15
2022-11-25T15:16:41.378Z,15.23
2022-11-25T15:19:18.165Z,16.02
2022-11-25T15:22:15.037Z,15.82
2022-11-25T15:24:47.912Z,14.95
2022-11-25T15:27:28.707Z,14.25
2022-11-25T15:29:57.329Z,19.10
2022-11-25T15:32:33.505Z,16.25
2022-11-25T15:35:01.931Z,18.55
2022-11-25T15:37:29.062Z,16.95
2022-11-25T15:40:31.120Z,20.95
2022-11-25T15:42:59.498Z,15.23
2022-11-25T15:45:29.923Z,18.60
2022-11-25T15:47:57.085Z,17.73
2022-11-25T15:50:26.364Z,16.83
2022-11-25T15:52:58.904Z,16.80
2022-11-25T15:55:36.650Z,20.20
2022-11-25T15:58:08.573Z,18.08
2022-11-25T16:00:35.793Z,22.40
2022-11-25T16:03:04.131Z,22.15
2022-11-25T16:05:35.917Z,20.67
2022-11-25T16:08:24.293Z,24.20
2022-11-25T16:10:53.631Z,24.30
2022-11-25T16:13:23.240Z,20.60
2022-11-25T16:15:54.905Z,18.65
2022-11-25T16:21:11.492Z,22.38
2022-11-25T16:23:42.438Z,22.33
2022-11-25T16:26:11.698Z,24.23
2022-11-25T16:28:40.847Z,27.45
2022-11-25T16:31:15.761Z,24.77
2022-11-25T16:33:42.623Z,20.63
2022-11-25T16:36:09.804Z,21.52
2022-11-25T16:38:36.337Z,24.05
2022-11-25T16:41:20.763Z,24.60
2022-11-25T16:43:47.229Z,25.20
2022-11-25T16:46:16.855Z,21.52
2022-11-25T16:48:43.873Z,19.42
2022-11-25T16:51:19.039Z,22.02
2022-11-25T16:53:46.341Z,16.55
2022-11-25T16:56:34.239Z,24.75
2022-11-25T16:59:00.788Z,29.08
2022-11-25T17:01:29.190Z,24.30
2022-11-25T17:03:55.720Z,23.05
2022-11-25T17:06:24.755Z,14.07
2022-11-25T17:08:51.737Z,19.20
2022-11-25T17:11:29.774Z,25.23
2022-11-25T17:13:59.112Z,18.60
2022-11-25T17:16:27.902Z,21.27
2022-11-25T17:18:57.394Z,23.42
2022-11-25T17:21:28.639Z,28.33
2022-11-25T17:23:59.837Z,29.10
2022-11-25T17:26:37.284Z,26.58
2022-11-25T17:29:12.927Z,30.02
2022-11-25T17:31:39.479Z,20.73
2022-11-25T17:34:06.267Z,27.85
2022-11-25T17:36:32.683Z,25.77
2022-11-25T17:38:59.205Z,23.35
2022-11-25T17:41:26.841Z,28.35
2022-11-25T17:43:54.023Z,31.70
2022-11-25T17:46:21.024Z,28.35
2022-11-25T17:48:47.659Z,19.92
2022-11-25T17:51:14.589Z,18.20
2022-11-25T17:53:41.631Z,29.50
2022-11-25T17:56:17.144Z,32.17
2022-11-25T17:58:43.658Z,28.70
2022-11-25T18:01:10.165Z,30.27
2022-11-25T18:03:36.750Z,31.05
2022-11-25T18:06:03.283Z,19.60
2022-11-25T18:08:29.817Z,19.63
2022-11-25T18:10:56.562Z,24.67
2022-11-25T18:13:23.057Z,23.10
2022-11-25T18:15:49.666Z,24.38
2022-11-25T18:18:24.668Z,24.45
2022-11-25T18:20:52.640Z,26.48
2022-11-25T18:23:19.683Z,28.95
2022-11-25T18:25:46.740Z,29.65
2022-11-25T18:28:22.582Z,31.80
2022-11-25T18:30:51.337Z,27.70
2022-11-25T18:33:19.282Z,31.77
2022-11-25T18:35:46.614Z,19.30
2022-11-25T18:38:13.352Z,32.47
2022-11-25T18:40:44.194Z,24.60
2022-11-25T18:43:18.298Z,33.33
2022-11-25T18:45:45.845Z,31.83
2022-11-25T18:48:20.629Z,18.17
2022-11-25T18:50:47.885Z,23.83
2022-11-25T18:53:14.466Z,24.50
2022-11-25T18:55:41.365Z,25.90
2022-11-25T18:58:16.409Z,19.73
2022-11-25T19:00:44.044Z,23.40
2022-11-25T19:03:19.146Z,31.48
2022-11-25T19:05:46.741Z,27.92
2022-11-25T19:08:13.868Z,25.58
2022-11-25T19:10:43.182Z,19.10
2022-11-25T19:13:19.601Z,26.33
2022-11-25T19:15:46.681Z,29.02
2022-11-25T19:18:27.221Z,20.10
2022-11-25T19:20:54.112Z,14.73
2022-11-25T19:23:25.243Z,25.73
2022-11-25T19:25:53.523Z,20.40
2022-11-25T19:28:20.436Z,18.98
2022-11-25T19:30:47.788Z,15.70
2022-11-25T19:33:27.743Z,20.15
2022-11-25T19:35:54.186Z,30.00
2022-11-25T19:38:25.191Z,21.90
2022-11-25T19:40:56.200Z,20.70
2022-11-25T19:43:26.823Z,14.57
2022-11-25T19:45:54.894Z,13.80
2022-11-25T19:48:22.725Z,11.15
2022-11-25T19:50:59.172Z,9.45
2022-11-25T19:53:31.756Z,13.38
2022-11-25T19:56:03.826Z,15.63
2022-11-25T19:58:30.503Z,11.00
2022-11-25T20:01:00.611Z,9.70
2022-11-25T20:03:30.080Z,16.13
2022-11-25T20:05:56.882Z,12.32
2022-11-25T20:08:26.388Z,10.20
2022-11-25T20:10:53.772Z,10.98
2022-11-25T20:13:20.916Z,12.13
2022-11-25T20:15:47.455Z,10.95
2022-11-25T20:18:18.518Z,14.13
2022-11-25T20:20:47.403Z,13.80
2022-11-25T20:23:20.592Z,15.85
2022-11-25T20:25:49.220Z,14.02
2022-11-25T20:28:32.835Z,17.15
2022-11-25T20:30:59.539Z,12.25
2022-11-25T20:33:27.103Z,11.18
2022-11-25T20:36:03.043Z,15.35
2022-11-25T20:38:32.643Z,15.75
2022-11-25T20:41:00.205Z,17.10
2022-11-25T20:43:39.024Z,12.82
2022-11-25T20:46:11.869Z,13.43
2022-11-25T20:48:38.473Z,10.18
2022-11-25T20:51:12.007Z,14.40
2022-11-25T20:53:41.028Z,15.40
2022-11-25T20:56:09.455Z,12.48
2022-11-25T20:58:36.915Z,12.43
2022-11-25T21:01:03.442Z,13.32
2022-11-25T21:03:29.943Z,17.00
2022-11-25T21:05:58.019Z,15.93
2022-11-25T21:08:30.029Z,14.57
2022-11-25T21:10:58.398Z,14.60
2022-11-25T21:13:27.979Z,14.02
2022-11-25T21:15:54.761Z,14.18
2022-11-25T21:18:22.034Z,12.93
2022-11-25T21:20:51.199Z,13.73
2022-11-25T21:23:28.191Z,12.70
2022-11-25T21:26:05.902Z,17.25
2022-11-25T21:28:36.966Z,17.02
2022-11-25T21:31:08.391Z,17.08
2022-11-25T21:33:37.514Z,13.30
2022-11-25T21:36:04.120Z,17.58
2022-11-25T21:38:30.595Z,11.13
2022-11-25T21:40:58.310Z,14.45
2022-11-25T21:43:28.901Z,15.40
2022-11-25T21:46:00.836Z,15.02
2022-11-25T21:48:28.016Z,17.60
2022-11-25T21:50:54.466Z,19.02
2022-11-25T21:53:21.161Z,16.92
2022-11-25T21:55:48.226Z,17.58
2022-11-25T21:58:20.501Z,19.08
2022-11-25T22:00:56.421Z,18.27
2022-11-25T22:03:24.431Z,13.68
2022-11-25T22:05:51.133Z,16.55
2022-11-25T22:08:18.018Z,16.85
2022-11-25T22:10:48.159Z,17.17
2022-11-25T22:13:17.630Z,19.80
2022-11-25T22:15:45.408Z,20.33
2022-11-25T22:18:24.676Z,19.75
2022-11-25T22:20:53.568Z,18.23
2022-11-25T22:23:21.014Z,18.17
2022-11-25T22:25:49.448Z,19.95
2022-11-25T22:28:18.427Z,19.50
2022-11-25T22:30:56.731Z,19.30
2022-11-25T22:33:30.497Z,17.13
2022-11-25T22:35:57.088Z,19.27
2022-11-25T22:38:23.550Z,16.55
2022-11-25T22:40:53.836Z,21.10
2022-11-25T22:43:25.581Z,21.17
2022-11-25T22:45:52.550Z,21.98
2022-11-25T22:48:23.858Z,14.90
2022-11-25T22:50:50.383Z,19.83
2022-11-25T22:53:18.550Z,19.17
2022-11-25T22:55:45.536Z,18.95
2022-11-25T22:58:13.841Z,17.27
2022-11-25T23:00:45.051Z,17.65
2022-11-25T23:03:19.058Z,18.40
2022-11-25T23:05:46.424Z,16.15
2022-11-25T23:08:21.977Z,15.77
2022-11-25T23:10:49.387Z,17.05
2022-11-25T23:13:20.402Z,16.33
2022-11-25T23:15:54.463Z,19.02
2022-11-25T23:18:27.963Z,17.48
2022-11-25T23:20:54.687Z,18.05
2022-11-25T23:23:27.037Z,19.38
2022-11-25T23:25:54.834Z,16.15
2022-11-25T23:28:21.445Z,17.70
2022-11-25T23:30:55.794Z,19.20
2022-11-25T23:33:33.712Z,19.25
2022-11-25T23:38:31.485Z,20.27
2022-11-25T23:40:58.031Z,17.83
2022-11-25T23:43:24.497Z,19.52
2022-11-25T23:45:56.320Z,16.02
2022-11-25T23:48:25.993Z,18.00
2022-11-25T23:50:55.391Z,18.27
2022-11-25T23:53:26.321Z,22.35
2022-11-25T23:55:52.829Z,25.10
2022-11-25T23:58:21.145Z,13.52
